Terminal Aerodrome Forecast
Issued by NWS

Home | Current Version | Previous Version | Text Only | Print | Product List | Glossary On
Versions: 1 2 3 4 5 6 7 8 9 10 11 12 13 14 15 16 17 18 19 20 21 22
000
FTUS41 KPBZ 192339
TAFLBE
TAF
KLBE 192339Z 2000/2024 36003KT P6SM FEW050
     FM200500 VRB02KT 4SM BR FEW050
     FM200800 VRB02KT 1/2SM FG SCT002
     FM201300 00000KT 4SM BR FEW050
     FM201400 32003KT P6SM SCT050=

USA.gov is the U.S. government's official web portal to all federal, state and local government web resources and services.